createdAt,value
2022-12-07T06:16:45.469Z,9.02
2022-12-07T06:26:45.350Z,12.79
2022-12-07T06:36:45.413Z,10.58
2022-12-07T06:46:45.364Z,10.01
2022-12-07T06:56:45.339Z,9.11
2022-12-07T07:06:45.400Z,7.55
2022-12-07T07:16:45.407Z,9.04
2022-12-07T07:26:45.529Z,8.72
2022-12-07T07:36:45.494Z,8.04
2022-12-07T07:46:45.669Z,8.32
2022-12-07T07:56:45.512Z,8.00
2022-12-07T08:06:45.595Z,9.02
2022-12-07T08:16:45.548Z,9.91
2022-12-07T08:26:45.508Z,10.12
2022-12-07T08:36:45.586Z,8.56
2022-12-07T08:46:45.472Z,8.05
2022-12-07T08:56:45.627Z,8.77
2022-12-07T09:06:45.885Z,10.70
2022-12-07T09:16:45.519Z,9.19
2022-12-07T09:26:45.511Z,11.54
2022-12-07T09:36:45.542Z,13.72
2022-12-07T09:46:45.393Z,11.78
2022-12-07T09:56:45.488Z,13.61
2022-12-07T10:06:45.438Z,14.69
2022-12-07T10:16:45.548Z,11.31
2022-12-07T10:26:45.566Z,12.44
2022-12-07T10:36:45.540Z,12.00
2022-12-07T10:46:45.573Z,10.27
2022-12-07T10:56:51.023Z,12.14
2022-12-07T11:06:45.526Z,11.05
2022-12-07T11:16:45.384Z,11.76
2022-12-07T11:26:45.282Z,12.40
2022-12-07T11:36:45.516Z,13.75
2022-12-07T11:46:45.673Z,11.67
2022-12-07T11:56:45.547Z,9.36
2022-12-07T12:06:45.696Z,10.33
2022-12-07T12:16:45.598Z,10.79
2022-12-07T12:26:45.524Z,11.69
2022-12-07T12:36:45.389Z,11.05
2022-12-07T12:46:49.663Z,11.51
2022-12-07T12:56:45.648Z,10.97
2022-12-07T13:06:45.581Z,9.67
2022-12-07T13:16:45.394Z,9.39
2022-12-07T13:26:45.402Z,8.13
2022-12-07T13:36:45.468Z,10.41
2022-12-07T13:46:45.504Z,14.26
2022-12-07T13:56:45.273Z,13.81
2022-12-07T14:06:45.467Z,13.06
2022-12-07T14:16:45.601Z,8.67
2022-12-07T14:26:45.282Z,10.27
2022-12-07T14:36:45.480Z,10.35
2022-12-07T14:46:45.658Z,11.23
2022-12-07T14:56:45.527Z,13.57
2022-12-07T15:06:45.368Z,12.36
2022-12-07T15:17:07.817Z,12.91
2022-12-07T15:26:45.362Z,24.73
2022-12-07T15:36:45.439Z,21.51
2022-12-07T15:46:45.532Z,14.30
2022-12-07T15:56:45.562Z,7.54
2022-12-07T16:06:45.435Z,6.03
2022-12-07T16:16:45.309Z,4.56
2022-12-07T16:26:50.005Z,2.28
2022-12-07T16:37:04.655Z,11.25
2022-12-07T16:46:45.442Z,9.47
2022-12-07T16:56:45.433Z,9.06
2022-12-07T17:06:45.427Z,10.20
2022-12-07T17:16:45.633Z,14.55
2022-12-07T17:26:45.532Z,8.89
2022-12-07T17:36:45.388Z,6.32
2022-12-07T17:46:45.459Z,12.63
2022-12-07T17:56:45.488Z,7.67
2022-12-07T18:06:48.973Z,3.68
2022-12-07T18:16:45.447Z,5.69
2022-12-07T18:26:45.400Z,5.05
2022-12-07T18:36:45.209Z,3.99
2022-12-07T18:46:45.320Z,3.67
2022-12-07T18:56:45.299Z,3.94
2022-12-07T19:06:45.352Z,3.59
2022-12-07T19:16:45.468Z,4.40
